Time;durP1;ratioP1;P1;durP2;ratioP2;P2;SDS_P1;SDS_P2;PMS_P1;PMS_P2;Temp;Humidity;BMP_temperature;BMP_pressure;BME280_temperature;BME280_humidity;BME280_pressure;Samples;Min_cycle;Max_cycle;Signal;HPM_P1;HPM_P2
2023/02/11 00:00:08;;;;;;;8.27;5.47;;;8.60;80.00;;;;;;5053193;28;20036;-61
2023/02/11 00:02:34;;;;;;;7.68;3.67;;;8.60;80.10;;;;;;5057494;28;20029;-62
2023/02/11 00:05:02;;;;;;;9.70;4.95;;;8.60;80.10;;;;;;5059920;28;20033;-61
2023/02/11 00:07:29;;;;;;;8.07;4.05;;;8.60;80.00;;;;;;5053981;28;20025;-60
2023/02/11 00:09:55;;;;;;;14.70;4.53;;;8.60;80.00;;;;;;5055461;28;20029;-61
2023/02/11 00:12:21;;;;;;;6.60;2.85;;;8.60;79.90;;;;;;5053689;28;20055;-62
2023/02/11 00:14:47;;;;;;;5.15;3.72;;;8.70;79.80;;;;;;5056934;28;20094;-60
2023/02/11 00:17:12;;;;;;;9.05;3.50;;;8.70;79.70;;;;;;5055590;28;20021;-62
2023/02/11 00:19:38;;;;;;;4.78;3.80;;;8.70;79.50;;;;;;5059262;28;20067;-61
2023/02/11 00:22:04;;;;;;;6.53;3.20;;;8.80;79.50;;;;;;5051915;28;20121;-62
2023/02/11 00:24:30;;;;;;;4.32;2.97;;;8.70;79.50;;;;;;5057049;28;20045;-62
2023/02/11 00:26:56;;;;;;;4.28;2.95;;;8.70;79.60;;;;;;5050662;28;20029;-62
2023/02/11 00:29:22;;;;;;;5.72;2.95;;;8.70;79.80;;;;;;5051254;28;20713;-61
2023/02/11 00:31:47;;;;;;;9.07;3.25;;;8.60;79.60;;;;;;5052793;28;20529;-61
2023/02/11 00:34:13;;;;;;;9.52;3.17;;;8.60;79.60;;;;;;5048215;28;20044;-60
2023/02/11 00:36:39;;;;;;;8.40;3.63;;;8.60;79.60;;;;;;5043108;28;20380;-61
2023/02/11 00:39:06;;;;;;;6.28;3.38;;;8.60;79.60;;;;;;5045206;28;20051;-62
2023/02/11 00:41:32;;;;;;;8.57;2.67;;;8.70;79.60;;;;;;5052199;28;20035;-63
2023/02/11 00:43:57;;;;;;;11.43;3.88;;;8.70;79.50;;;;;;5053501;28;20090;-63
2023/02/11 00:46:23;;;;;;;15.02;4.00;;;8.70;79.50;;;;;;5057804;28;20108;-63
2023/02/11 00:48:50;;;;;;;4.63;2.85;;;8.70;79.40;;;;;;5064760;28;20036;-63
2023/02/11 00:51:16;;;;;;;10.07;4.18;;;8.70;79.30;;;;;;5048234;28;20025;-62
2023/02/11 00:53:42;;;;;;;7.22;3.10;;;8.70;79.40;;;;;;5046213;28;20048;-61
2023/02/11 00:56:08;;;;;;;4.55;2.78;;;8.70;79.40;;;;;;5051054;28;20484;-61
2023/02/11 00:58:34;;;;;;;6.85;3.92;;;8.60;79.40;;;;;;5049532;28;20033;-61
2023/02/11 01:01:00;;;;;;;10.48;2.85;;;8.70;79.50;;;;;;5053384;28;20052;-62
2023/02/11 01:03:26;;;;;;;5.03;2.58;;;8.70;79.50;;;;;;5045248;28;20468;-62
2023/02/11 01:05:52;;;;;;;6.78;2.17;;;8.70;79.40;;;;;;5059988;28;20037;-61
2023/02/11 01:08:18;;;;;;;5.00;2.97;;;8.70;79.30;;;;;;5044947;28;20045;-61
2023/02/11 01:10:44;;;;;;;7.10;3.65;;;8.70;79.40;;;;;;5049331;28;20108;-61
2023/02/11 01:13:10;;;;;;;9.38;2.95;;;8.60;79.50;;;;;;5036559;28;20124;-61
2023/02/11 01:15:35;;;;;;;7.55;3.20;;;8.60;79.60;;;;;;5067207;28;20021;-63
2023/02/11 01:18:03;;;;;;;4.85;2.42;;;8.60;79.70;;;;;;5051466;28;20041;-62
2023/02/11 01:20:28;;;;;;;5.20;2.97;;;8.60;79.70;;;;;;5051054;28;20026;-62
2023/02/11 01:22:54;;;;;;;6.20;2.83;;;8.60;79.80;;;;;;5057384;28;20381;-62
2023/02/11 01:25:20;;;;;;;3.17;2.55;;;8.60;79.80;;;;;;5045421;28;20488;-61
2023/02/11 01:27:45;;;;;;;5.38;2.30;;;8.60;79.70;;;;;;5045797;28;20415;-61
2023/02/11 01:30:13;;;;;;;7.18;3.10;;;8.60;79.60;;;;;;5047998;28;20041;-61
2023/02/11 01:32:39;;;;;;;5.97;2.58;;;8.60;79.60;;;;;;5041085;28;20032;-62
2023/02/11 01:35:05;;;;;;;8.68;3.45;;;8.60;79.60;;;;;;5051294;28;20496;-62
2023/02/11 01:37:35;;;;;;;6.10;2.60;;;8.50;79.70;;;;;;5049755;28;20074;-61
2023/02/11 01:40:02;;;;;;;5.38;2.92;;;8.50;79.80;;;;;;5054444;28;20025;-62
2023/02/11 01:42:28;;;;;;;4.22;2.53;;;8.50;79.80;;;;;;5050267;28;20043;-62
2023/02/11 01:44:54;;;;;;;9.05;3.08;;;8.50;79.80;;;;;;5047628;28;20503;-62
2023/02/11 01:47:20;;;;;;;8.55;2.63;;;8.50;79.70;;;;;;5050075;28;20037;-62
2023/02/11 01:49:51;;;;;;;8.00;2.83;;;8.50;79.70;;;;;;5049953;28;20029;-63
2023/02/11 01:52:28;;;;;;;3.92;1.98;;;8.50;79.80;;;;;;5046202;28;20076;-63
2023/02/11 01:57:51;;;;;;;5.00;2.67;;;8.60;79.80;;;;;;5049572;28;20114;-63
2023/02/11 02:00:30;;;;;;;5.63;2.58;;;8.60;79.70;;;;;;5054045;28;20456;-62
2023/02/11 02:02:59;;;;;;;4.05;2.58;;;8.60;79.80;;;;;;5049122;28;20493;-63
2023/02/11 02:05:48;;;;;;;5.43;2.25;;;8.60;79.80;;;;;;5045109;28;20056;-64
2023/02/11 02:08:20;;;;;;;3.33;2.38;;;8.60;79.70;;;;;;5039442;28;20044;-63
2023/02/11 02:10:48;;;;;;;3.72;2.33;;;8.60;79.50;;;;;;5054336;28;20025;-62
2023/02/11 02:13:14;;;;;;;7.88;2.83;;;8.60;79.40;;;;;;5052052;28;20041;-63
2023/02/11 02:15:54;;;;;;;12.20;3.25;;;8.60;79.40;;;;;;5051125;28;20166;-61
2023/02/11 02:18:28;;;;;;;12.23;2.75;;;8.60;79.50;;;;;;5045529;28;20111;-61
2023/02/11 02:21:28;;;;;;;6.53;2.78;;;8.60;79.60;;;;;;5044717;28;20024;-61
2023/02/11 02:24:26;;;;;;;8.13;3.30;;;8.60;79.70;;;;;;5043317;28;20064;-62
2023/02/11 02:27:36;;;;;;;12.25;3.08;;;8.50;79.80;;;;;;5043273;28;20025;-63
2023/02/11 02:30:15;;;;;;;11.00;3.67;;;8.50;79.80;;;;;;5046742;28;20512;-63
2023/02/11 02:32:53;;;;;;;6.30;2.50;;;8.40;79.90;;;;;;5040345;28;20075;-61
2023/02/11 02:35:41;;;;;;;7.25;3.10;;;8.50;80.00;;;;;;5050851;28;20035;-62
2023/02/11 02:38:34;;;;;;;11.07;3.25;;;8.50;80.10;;;;;;5047319;28;20025;-63
2023/02/11 02:41:10;;;;;;;5.10;2.22;;;8.40;80.10;;;;;;5049887;28;20032;-63
2023/02/11 02:43:41;;;;;;;2.47;2.05;;;8.40;80.20;;;;;;5043765;28;20110;-63
2023/02/11 02:46:16;;;;;;;4.22;1.95;;;8.40;80.20;;;;;;5024817;28;20022;-63
2023/02/11 02:48:43;;;;;;;7.78;2.95;;;8.50;80.10;;;;;;5038738;28;20064;-62
2023/02/11 02:51:29;;;;;;;7.15;2.38;;;8.50;80.10;;;;;;5041520;28;20029;-63
2023/02/11 02:54:16;;;;;;;2.80;1.88;;;8.50;80.00;;;;;;5049659;28;20021;-63
2023/02/11 02:56:54;;;;;;;7.78;3.13;;;8.50;80.00;;;;;;5047984;28;20017;-61
2023/02/11 02:59:29;;;;;;;2.70;2.00;;;8.50;80.00;;;;;;5047111;28;20025;-63
2023/02/11 03:02:16;;;;;;;2.53;1.42;;;8.50;80.00;;;;;;5043191;28;20029;-62
2023/02/11 03:05:13;;;;;;;5.85;2.75;;;8.50;80.10;;;;;;5053551;28;20129;-63
2023/02/11 03:07:47;;;;;;;3.97;2.30;;;8.50;80.00;;;;;;5046867;28;20033;-63
2023/02/11 03:10:20;;;;;;;4.05;2.22;;;8.50;80.10;;;;;;5052960;28;20021;-63
2023/02/11 03:12:47;;;;;;;4.57;3.03;;;8.50;80.00;;;;;;5042332;28;20163;-62
2023/02/11 03:15:14;;;;;;;5.38;2.60;;;8.50;80.20;;;;;;5039432;28;20151;-62
2023/02/11 03:17:43;;;;;;;5.30;2.58;;;8.50;80.30;;;;;;5043645;28;20031;-63
2023/02/11 03:20:11;;;;;;;6.03;3.25;;;8.40;80.40;;;;;;5054155;28;20037;-62
2023/02/11 03:22:45;;;;;;;5.30;2.58;;;8.40;80.50;;;;;;5042066;28;20041;-63
2023/02/11 03:25:11;;;;;;;5.53;2.67;;;8.40;80.60;;;;;;5043247;28;20044;-61
2023/02/11 03:27:53;;;;;;;5.10;2.75;;;8.40;80.70;;;;;;5048613;28;20033;-62
2023/02/11 03:30:26;;;;;;;10.65;3.92;;;8.40;80.70;;;;;;5044563;28;20036;-62
2023/02/11 03:32:56;;;;;;;6.18;3.22;;;8.40;80.80;;;;;;5044846;28;20025;-63
2023/02/11 03:35:27;;;;;;;8.90;2.92;;;8.40;80.90;;;;;;5047892;28;20037;-63
2023/02/11 03:37:59;;;;;;;7.95;3.47;;;8.30;81.10;;;;;;5038696;28;20014;-61
2023/02/11 03:40:28;;;;;;;4.70;3.00;;;8.40;81.20;;;;;;5045043;28;20108;-61
2023/02/11 03:42:59;;;;;;;14.02;4.78;;;8.30;81.40;;;;;;5045246;28;20146;-63
2023/02/11 03:45:26;;;;;;;8.20;3.25;;;8.40;81.40;;;;;;5052724;28;20025;-60
2023/02/11 03:48:04;;;;;;;8.98;3.65;;;8.40;81.30;;;;;;5048299;28;20033;-60
2023/02/11 03:50:32;;;;;;;4.45;3.03;;;8.40;81.10;;;;;;5056050;28;20545;-61
2023/02/11 03:53:00;;;;;;;7.75;3.40;;;8.40;81.10;;;;;;5047479;28;20024;-61
2023/02/11 03:55:28;;;;;;;5.55;3.15;;;8.40;81.10;;;;;;5028573;28;20017;-61
2023/02/11 03:57:54;;;;;;;7.25;3.70;;;8.40;81.20;;;;;;5047641;28;20396;-61
2023/02/11 04:00:20;;;;;;;7.93;3.20;;;8.40;81.20;;;;;;5052037;28;20033;-61
2023/02/11 04:02:45;;;;;;;6.43;3.15;;;8.40;81.10;;;;;;5048620;28;20029;-61
2023/02/11 04:05:14;;;;;;;9.65;2.95;;;8.50;81.10;;;;;;5083874;28;20114;-62
2023/02/11 04:07:40;;;;;;;12.35;4.00;;;8.50;81.00;;;;;;5050540;28;20036;-61
2023/02/11 04:10:06;;;;;;;4.75;3.33;;;8.50;81.10;;;;;;5053202;28;20458;-61
2023/02/11 04:12:32;;;;;;;5.18;2.78;;;8.50;81.10;;;;;;5050363;28;20740;-60
2023/02/11 04:14:58;;;;;;;7.32;3.47;;;8.50;81.20;;;;;;5051207;28;20485;-62
2023/02/11 04:17:24;;;;;;;11.68;2.70;;;8.40;81.30;;;;;;5050169;28;20033;-62
2023/02/11 04:19:49;;;;;;;7.65;3.15;;;8.50;81.30;;;;;;5048708;28;20068;-61
2023/02/11 04:22:15;;;;;;;4.80;3.45;;;8.50;81.30;;;;;;5044959;28;20408;-61
2023/02/11 04:24:42;;;;;;;10.35;4.30;;;8.50;81.20;;;;;;5080894;28;20526;-62
2023/02/11 04:27:08;;;;;;;8.43;3.00;;;8.50;81.40;;;;;;5054186;28;20033;-62
2023/02/11 04:29:34;;;;;;;10.88;3.58;;;8.50;81.40;;;;;;5049765;28;20396;-61
2023/02/11 04:32:00;;;;;;;8.75;3.85;;;8.50;81.50;;;;;;5053524;28;20040;-62
2023/02/11 04:34:26;;;;;;;7.15;3.45;;;8.50;81.50;;;;;;5051854;28;20043;-63
2023/02/11 04:36:52;;;;;;;7.03;3.95;;;8.50;81.40;;;;;;5050042;28;20040;-62
2023/02/11 04:39:18;;;;;;;12.25;3.90;;;8.50;81.50;;;;;;5040419;28;20025;-62
2023/02/11 04:41:43;;;;;;;8.13;3.65;;;8.50;81.50;;;;;;5049713;28;20044;-62
2023/02/11 04:44:09;;;;;;;8.98;3.80;;;8.50;81.60;;;;;;5046796;28;20025;-62
2023/02/11 04:46:36;;;;;;;8.60;3.75;;;8.50;81.60;;;;;;5048501;28;20442;-61
2023/02/11 04:49:02;;;;;;;9.38;4.55;;;8.50;81.70;;;;;;5052502;28;20037;-61
2023/02/11 04:51:28;;;;;;;6.05;4.63;;;8.50;81.80;;;;;;5055766;28;20112;-61
2023/02/11 04:53:54;;;;;;;13.32;5.10;;;8.50;82.00;;;;;;5049301;28;20440;-61
2023/02/11 04:56:19;;;;;;;7.80;3.25;;;8.40;82.10;;;;;;5045346;28;20101;-62
2023/02/11 04:58:45;;;;;;;14.88;3.70;;;8.40;82.60;;;;;;5049322;28;20052;-62
2023/02/11 05:01:13;;;;;;;11.77;4.53;;;8.50;82.70;;;;;;5079738;28;20051;-62
2023/02/11 05:03:40;;;;;;;8.90;4.32;;;8.50;82.00;;;;;;5044510;28;20056;-63
2023/02/11 05:06:08;;;;;;;14.48;5.07;;;8.50;81.90;;;;;;5049621;28;20040;-61
2023/02/11 05:08:33;;;;;;;6.47;4.60;;;8.50;82.00;;;;;;5046118;28;20079;-60
2023/02/11 05:11:01;;;;;;;7.53;4.57;;;8.40;82.10;;;;;;5045939;28;20061;-61
2023/02/11 05:13:27;;;;;;;7.22;3.60;;;8.50;82.20;;;;;;5040829;28;20040;-63
2023/02/11 05:15:52;;;;;;;6.28;3.88;;;8.50;82.20;;;;;;5042810;28;20109;-63
2023/02/11 05:18:18;;;;;;;7.82;3.97;;;8.50;82.30;;;;;;5044173;28;20048;-63
2023/02/11 05:20:44;;;;;;;5.20;3.60;;;8.50;82.20;;;;;;5044911;28;20049;-62
2023/02/11 05:23:10;;;;;;;8.65;4.68;;;8.50;82.20;;;;;;5051781;28;20519;-63
2023/02/11 05:25:35;;;;;;;8.90;4.45;;;8.50;82.10;;;;;;5046380;28;20083;-63
2023/02/11 05:28:02;;;;;;;9.70;3.78;;;8.50;82.20;;;;;;5049017;28;20032;-63
2023/02/11 05:30:28;;;;;;;9.10;4.00;;;8.50;82.20;;;;;;5043966;28;20060;-62
2023/02/11 05:32:55;;;;;;;5.68;3.85;;;8.50;82.20;;;;;;5049099;28;20053;-63
2023/02/11 05:35:20;;;;;;;11.75;4.85;;;8.50;82.20;;;;;;5053020;28;20499;-62
2023/02/11 05:37:46;;;;;;;6.88;3.38;;;8.50;82.10;;;;;;5048171;28;20033;-62
2023/02/11 05:40:12;;;;;;;11.88;4.32;;;8.60;82.00;;;;;;5050460;28;20087;-62
2023/02/11 05:42:38;;;;;;;9.32;4.28;;;8.60;82.00;;;;;;5039492;28;20033;-63
2023/02/11 05:45:04;;;;;;;8.10;4.50;;;8.60;82.10;;;;;;5046211;28;20438;-62
2023/02/11 05:47:29;;;;;;;7.68;4.60;;;8.60;82.10;;;;;;5041782;28;20037;-62
2023/02/11 05:49:55;;;;;;;8.60;4.57;;;8.60;82.30;;;;;;5037793;28;20029;-63
2023/02/11 05:52:22;;;;;;;13.80;6.03;;;8.50;82.40;;;;;;5047910;28;20089;-63
2023/02/11 05:54:48;;;;;;;14.63;5.47;;;8.50;82.60;;;;;;5052193;28;20202;-63
2023/02/11 05:57:13;;;;;;;6.93;4.82;;;8.50;82.60;;;;;;5051015;28;20047;-63
2023/02/11 05:59:39;;;;;;;10.63;5.45;;;8.50;82.50;;;;;;5049615;28;20052;-62
2023/02/11 06:02:06;;;;;;;10.63;5.97;;;8.60;82.50;;;;;;5048430;28;20037;-62
2023/02/11 06:04:33;;;;;;;10.60;5.50;;;8.60;82.60;;;;;;5049383;28;20033;-63
2023/02/11 06:06:58;;;;;;;14.32;5.63;;;8.50;82.80;;;;;;5047333;28;20025;-63
2023/02/11 06:09:25;;;;;;;5.70;3.47;;;8.50;82.90;;;;;;5049436;28;20457;-61
2023/02/11 06:11:50;;;;;;;8.40;4.60;;;8.40;82.90;;;;;;5052885;28;20025;-61
2023/02/11 06:14:16;;;;;;;9.13;5.57;;;8.40;82.90;;;;;;5049729;28;20029;-62
2023/02/11 06:16:42;;;;;;;8.55;4.68;;;8.50;83.00;;;;;;5046129;28;20017;-61
2023/02/11 06:19:07;;;;;;;8.48;5.10;;;8.50;82.90;;;;;;5049349;28;20489;-61
2023/02/11 06:21:33;;;;;;;15.15;5.13;;;8.50;82.80;;;;;;5048066;28;20082;-62
2023/02/11 06:23:59;;;;;;;10.02;5.90;;;8.50;82.70;;;;;;5062695;28;20535;-61
2023/02/11 06:26:25;;;;;;;9.65;5.35;;;8.50;82.70;;;;;;5045200;28;20110;-63
2023/02/11 06:28:50;;;;;;;13.27;5.45;;;8.50;82.80;;;;;;5040400;28;20033;-64
2023/02/11 06:31:16;;;;;;;10.05;4.22;;;8.50;82.70;;;;;;5043702;28;20037;-64
2023/02/11 06:33:42;;;;;;;9.95;5.13;;;8.50;82.70;;;;;;5042508;28;20026;-64
2023/02/11 06:36:20;;;;;;;11.23;5.68;;;8.50;82.60;;;;;;5050424;28;20086;-67
2023/02/11 06:38:46;;;;;;;7.53;5.00;;;8.50;82.70;;;;;;5039993;28;20013;-67
2023/02/11 06:41:14;;;;;;;11.45;5.90;;;8.50;82.90;;;;;;5048825;28;20413;-68
2023/02/11 06:43:41;;;;;;;12.70;6.47;;;8.50;82.80;;;;;;5051507;28;20324;-67
2023/02/11 06:46:07;;;;;;;13.00;5.88;;;8.50;82.80;;;;;;5047849;28;20122;-68
2023/02/11 06:48:33;;;;;;;5.78;4.90;;;8.50;82.70;;;;;;5043906;28;20029;-66
2023/02/11 06:51:08;;;;;;;11.50;5.43;;;8.50;82.70;;;;;;5044915;28;20398;-68
2023/02/11 06:53:35;;;;;;;13.05;6.68;;;8.60;82.70;;;;;;5038223;28;20025;-67
2023/02/11 06:56:07;;;;;;;13.30;5.53;;;8.50;82.70;;;;;;5045789;28;20028;-66
2023/02/11 06:58:33;;;;;;;13.20;6.13;;;8.50;82.70;;;;;;5042653;28;20111;-68
2023/02/11 07:00:59;;;;;;;17.02;6.25;;;8.50;82.80;;;;;;5050326;28;20026;-67
2023/02/11 07:03:25;;;;;;;14.45;6.10;;;8.50;82.80;;;;;;5044657;28;20034;-66
2023/02/11 07:05:51;;;;;;;11.65;6.22;;;8.50;82.70;;;;;;5041758;28;20579;-67
2023/02/11 07:08:16;;;;;;;11.50;6.30;;;8.50;82.70;;;;;;5044985;28;20108;-67
2023/02/11 07:10:42;;;;;;;14.00;7.22;;;8.60;82.70;;;;;;5044609;28;20072;-67
2023/02/11 07:13:08;;;;;;;11.60;5.45;;;8.50;82.70;;;;;;5041016;28;20025;-65
2023/02/11 07:15:35;;;;;;;14.40;7.70;;;8.50;82.90;;;;;;5049702;28;20613;-66
2023/02/11 07:18:00;;;;;;;14.13;7.07;;;8.50;83.10;;;;;;5042714;28;20021;-66
2023/02/11 07:20:26;;;;;;;12.90;6.65;;;8.40;83.20;;;;;;5047814;28;20033;-65
2023/02/11 07:22:52;;;;;;;14.43;7.55;;;8.40;83.30;;;;;;5049864;28;20052;-65
2023/02/11 07:25:17;;;;;;;8.90;6.00;;;8.40;83.50;;;;;;5045765;28;20495;-59
2023/02/11 07:27:43;;;;;;;15.57;7.38;;;8.40;83.50;;;;;;5044498;28;20026;-68
2023/02/11 07:30:10;;;;;;;13.63;5.90;;;8.50;83.40;;;;;;5046460;28;20033;-66
2023/02/11 07:32:35;;;;;;;13.10;6.45;;;8.50;83.30;;;;;;5051804;28;20108;-69
2023/02/11 07:35:01;;;;;;;11.48;6.07;;;8.50;83.30;;;;;;5051527;28;20108;-69
2023/02/11 07:37:27;;;;;;;16.38;7.47;;;8.50;83.30;;;;;;5063305;28;20064;-68
2023/02/11 07:39:53;;;;;;;11.15;6.60;;;8.50;83.20;;;;;;5077371;28;20029;-67
2023/02/11 07:42:18;;;;;;;10.38;6.05;;;8.60;83.40;;;;;;5049384;28;20123;-66
2023/02/11 07:44:45;;;;;;;12.57;6.90;;;8.60;83.40;;;;;;5044140;28;20076;-67
2023/02/11 07:47:11;;;;;;;11.00;6.72;;;8.60;83.40;;;;;;5042040;28;20033;-68
2023/02/11 07:49:36;;;;;;;10.02;6.38;;;8.60;83.40;;;;;;5045136;28;20090;-67
2023/02/11 07:52:02;;;;;;;18.20;6.28;;;8.60;83.30;;;;;;5044199;28;20026;-69
2023/02/11 07:54:28;;;;;;;12.65;7.35;;;8.70;83.30;;;;;;5042802;28;20060;-67
2023/02/11 07:56:53;;;;;;;13.27;8.32;;;8.70;83.20;;;;;;5048261;28;20486;-66
2023/02/11 07:59:19;;;;;;;15.93;8.93;;;8.70;83.30;;;;;;5047170;28;20021;-66
2023/02/11 08:01:45;;;;;;;20.70;9.82;;;8.70;83.60;;;;;;5043957;28;20460;-64
2023/02/11 08:04:11;;;;;;;18.65;7.55;;;8.70;83.70;;;;;;5037824;28;20033;-64
2023/02/11 08:06:41;;;;;;;14.55;7.80;;;8.70;83.70;;;;;;5044608;28;20472;-67
2023/02/11 08:09:08;;;;;;;16.00;8.52;;;8.70;83.60;;;;;;5049828;28;20080;-65
2023/02/11 08:11:34;;;;;;;13.52;7.40;;;8.70;83.60;;;;;;5049059;28;20620;-66
2023/02/11 08:14:00;;;;;;;15.75;8.95;;;8.80;83.70;;;;;;5050686;28;20232;-62
2023/02/11 08:16:32;;;;;;;21.92;8.52;;;8.80;83.60;;;;;;5050000;28;20036;-66
2023/02/11 08:19:00;;;;;;;12.77;7.13;;;8.80;83.50;;;;;;5049164;28;20448;-62
2023/02/11 08:21:26;;;;;;;18.75;10.15;;;8.80;83.50;;;;;;5063414;28;20418;-62
2023/02/11 08:23:52;;;;;;;13.68;8.90;;;8.80;83.60;;;;;;5044859;28;20119;-62
2023/02/11 08:26:21;;;;;;;21.83;9.82;;;8.80;83.70;;;;;;5049397;28;20036;-65
2023/02/11 08:28:48;;;;;;;17.33;9.25;;;8.80;83.70;;;;;;5048620;28;20021;-64
2023/02/11 08:31:16;;;;;;;17.55;10.55;;;8.80;84.00;;;;;;5047655;28;20029;-67
2023/02/11 08:33:43;;;;;;;18.33;10.48;;;8.80;84.00;;;;;;5050916;28;20304;-68
2023/02/11 08:36:14;;;;;;;20.42;9.15;;;8.80;84.30;;;;;;5047157;28;20028;-65
2023/02/11 08:38:40;;;;;;;13.80;7.63;;;8.90;84.10;;;;;;5050106;28;20025;-65
2023/02/11 08:41:06;;;;;;;17.60;8.73;;;8.90;83.90;;;;;;5041562;28;20033;-64
2023/02/11 08:43:33;;;;;;;13.90;8.05;;;9.00;83.80;;;;;;5045484;28;20048;-65
2023/02/11 08:45:59;;;;;;;26.25;11.00;;;9.00;83.50;;;;;;5043608;28;20035;-66
2023/02/11 08:48:25;;;;;;;19.98;11.05;;;9.00;83.60;;;;;;5049388;28;20357;-67
2023/02/11 08:50:51;;;;;;;17.70;9.90;;;9.00;83.80;;;;;;5043619;28;20078;-66
2023/02/11 08:53:16;;;;;;;17.73;9.93;;;9.00;83.90;;;;;;5045028;28;20479;-65
2023/02/11 08:55:53;;;;;;;19.73;8.85;;;9.00;83.90;;;;;;5047994;28;20025;-67
2023/02/11 08:58:19;;;;;;;19.88;10.10;;;9.00;84.10;;;;;;5049513;28;20033;-66
2023/02/11 09:00:46;;;;;;;17.48;10.90;;;9.00;84.20;;;;;;5050092;28;20032;-65
2023/02/11 09:03:12;;;;;;;20.40;8.25;;;9.10;84.30;;;;;;5052544;28;20029;-61
2023/02/11 09:05:46;;;;;;;20.10;9.15;;;9.10;84.30;;;;;;5046344;28;20517;-66
2023/02/11 09:08:13;;;;;;;15.88;9.25;;;9.20;84.10;;;;;;5043847;28;20032;-64
2023/02/11 09:10:39;;;;;;;19.88;9.07;;;9.20;84.10;;;;;;5041418;28;20052;-61
2023/02/11 09:13:05;;;;;;;14.82;8.18;;;9.30;83.90;;;;;;5049402;28;20031;-65
2023/02/11 09:15:31;;;;;;;16.30;8.18;;;9.40;83.80;;;;;;5044156;28;20372;-61
2023/02/11 09:17:57;;;;;;;16.77;9.15;;;9.40;83.70;;;;;;5045871;28;20320;-61
2023/02/11 09:20:23;;;;;;;19.67;9.73;;;9.40;83.60;;;;;;5040766;28;20454;-62
2023/02/11 09:22:50;;;;;;;19.35;9.80;;;9.50;83.70;;;;;;5045908;28;20045;-62
2023/02/11 09:25:16;;;;;;;12.70;8.52;;;9.40;83.90;;;;;;5050614;28;20071;-65
2023/02/11 09:27:41;;;;;;;19.55;8.32;;;9.40;84.10;;;;;;5045691;28;20095;-62
2023/02/11 09:30:08;;;;;;;12.88;8.27;;;9.40;84.10;;;;;;5054792;28;20431;-62
2023/02/11 09:32:33;;;;;;;12.77;8.63;;;9.50;84.00;;;;;;5041480;28;20026;-63
2023/02/11 09:34:59;;;;;;;19.63;8.98;;;9.50;83.80;;;;;;5045750;28;20025;-63
2023/02/11 09:37:25;;;;;;;16.70;8.50;;;9.60;83.90;;;;;;5054269;28;20025;-64
2023/02/11 09:39:50;;;;;;;22.15;8.32;;;9.60;83.80;;;;;;5048842;28;20021;-64
2023/02/11 09:42:31;;;;;;;16.80;7.90;;;9.60;83.70;;;;;;5050123;28;20089;-64
2023/02/11 09:44:59;;;;;;;18.90;8.27;;;9.80;83.50;;;;;;5053307;28;20033;-65
2023/02/11 09:47:29;;;;;;;16.80;8.07;;;9.80;83.30;;;;;;5043009;28;20083;-64
2023/02/11 09:50:10;;;;;;;16.48;8.60;;;9.70;83.40;;;;;;5049868;28;20033;-64
2023/02/11 09:52:50;;;;;;;15.60;9.45;;;9.80;83.50;;;;;;5044103;28;20595;-67
2023/02/11 09:55:36;;;;;;;11.73;7.25;;;9.80;83.40;;;;;;5045613;28;20029;-67
2023/02/11 09:58:42;;;;;;;15.52;6.25;;;9.80;83.40;;;;;;5049061;28;20029;-61
2023/02/11 10:01:15;;;;;;;13.30;6.82;;;10.00;83.20;;;;;;5046750;28;20040;-64
2023/02/11 10:03:53;;;;;;;16.48;8.48;;;10.00;83.00;;;;;;5022446;28;20028;-62
2023/02/11 10:06:24;;;;;;;11.35;7.53;;;10.10;82.70;;;;;;5036865;28;20400;-62
2023/02/11 10:09:17;;;;;;;10.98;7.00;;;10.10;82.60;;;;;;5040401;28;20032;-63
2023/02/11 10:12:20;;;;;;;14.00;7.68;;;10.10;82.50;;;;;;5039415;28;20392;-63
2023/02/11 10:15:04;;;;;;;14.30;8.10;;;10.10;82.50;;;;;;5062167;28;20060;-62
2023/02/11 10:18:06;;;;;;;11.50;7.38;;;10.10;82.60;;;;;;5039052;28;20067;-63
2023/02/11 10:20:43;;;;;;;12.45;7.43;;;10.10;82.50;;;;;;5043558;28;20032;-62
2023/02/11 10:23:21;;;;;;;21.23;8.38;;;10.10;82.70;;;;;;5037199;28;20033;-62
2023/02/11 10:25:53;;;;;;;16.67;7.93;;;10.20;82.70;;;;;;5041291;28;20028;-62
2023/02/11 10:28:35;;;;;;;15.38;8.05;;;10.20;82.60;;;;;;5044520;28;20113;-62
2023/02/11 10:31:16;;;;;;;14.40;8.57;;;10.30;82.50;;;;;;5033413;28;20072;-62
2023/02/11 10:34:04;;;;;;;14.00;7.03;;;10.30;82.20;;;;;;5063987;28;20021;-62
2023/02/11 10:36:33;;;;;;;13.93;7.78;;;10.40;82.10;;;;;;5042337;28;20029;-62
2023/02/11 10:39:32;;;;;;;11.60;7.18;;;10.50;81.90;;;;;;5042465;28;20767;-63
2023/02/11 10:42:10;;;;;;;18.08;6.70;;;10.50;81.80;;;;;;5033060;28;20439;-62
2023/02/11 10:44:48;;;;;;;15.48;8.20;;;10.60;81.70;;;;;;5041807;28;20029;-63
2023/02/11 10:47:21;;;;;;;19.00;7.88;;;10.70;81.50;;;;;;5047597;28;20087;-62
2023/02/11 10:49:47;;;;;;;14.40;7.75;;;10.70;81.40;;;;;;5048015;28;20464;-62
2023/02/11 10:52:15;;;;;;;16.67;7.28;;;10.70;81.10;;;;;;5042527;28;20094;-64
2023/02/11 10:54:40;;;;;;;10.02;6.28;;;10.80;81.10;;;;;;5052024;28;20087;-64
2023/02/11 10:57:16;;;;;;;13.55;6.65;;;10.80;80.90;;;;;;5047861;28;20033;-63
2023/02/11 10:59:42;;;;;;;9.23;5.22;;;10.90;80.80;;;;;;5074775;28;20029;-63
2023/02/11 11:02:33;;;;;;;9.55;5.60;;;10.90;80.80;;;;;;5039014;28;20365;-64
2023/02/11 11:05:02;;;;;;;15.40;8.38;;;11.00;80.50;;;;;;5040996;28;20032;-64
2023/02/11 11:07:33;;;;;;;11.18;6.07;;;10.90;80.50;;;;;;5043361;28;20103;-64
2023/02/11 11:10:42;;;;;;;12.05;6.57;;;11.00;80.60;;;;;;5042334;28;20045;-64
2023/02/11 11:13:23;;;;;;;8.70;6.25;;;11.10;80.40;;;;;;5030541;28;20045;-62
2023/02/11 11:16:08;;;;;;;9.10;6.15;;;11.10;80.30;;;;;;5036467;28;20033;-62
2023/02/11 11:18:34;;;;;;;14.40;7.38;;;11.20;80.20;;;;;;5044902;28;20024;-64
2023/02/11 11:21:06;;;;;;;17.73;8.07;;;11.20;80.10;;;;;;5048935;28;20086;-62
2023/02/11 11:23:35;;;;;;;16.90;8.52;;;11.20;80.00;;;;;;5045538;28;20490;-62
2023/02/11 11:26:04;;;;;;;15.20;7.72;;;11.20;79.90;;;;;;5046082;28;20107;-63
2023/02/11 11:28:51;;;;;;;12.50;7.40;;;11.20;80.00;;;;;;5044154;28;20679;-63
2023/02/11 11:31:32;;;;;;;13.77;7.57;;;11.20;80.00;;;;;;5040459;28;20049;-63
2023/02/11 11:34:00;;;;;;;14.40;8.20;;;11.20;79.90;;;;;;5048440;28;20057;-62
2023/02/11 11:36:38;;;;;;;14.75;8.13;;;11.20;80.00;;;;;;5057314;28;20095;-62
2023/02/11 11:39:26;;;;;;;15.05;8.30;;;11.20;80.00;;;;;;5044223;28;20033;-62
2023/02/11 11:42:01;;;;;;;14.02;7.65;;;11.20;79.90;;;;;;5044575;28;20061;-65
2023/02/11 11:44:33;;;;;;;14.18;7.68;;;11.20;80.10;;;;;;5035677;28;20036;-64
2023/02/11 11:47:11;;;;;;;13.23;8.32;;;11.20;79.90;;;;;;5037127;28;20025;-64
2023/02/11 11:49:39;;;;;;;12.38;7.53;;;11.20;79.90;;;;;;5045910;28;20041;-64
2023/02/11 11:52:26;;;;;;;16.23;8.27;;;11.20;80.00;;;;;;5042678;28;20029;-63
2023/02/11 11:55:03;;;;;;;14.23;7.97;;;11.20;80.00;;;;;;5033208;28;20028;-63
2023/02/11 11:57:32;;;;;;;15.90;7.75;;;11.30;80.00;;;;;;5039726;28;20038;-64
2023/02/11 11:59:58;;;;;;;14.02;7.18;;;11.40;79.80;;;;;;5042413;28;20574;-63
2023/02/11 12:02:41;;;;;;;10.80;5.65;;;11.60;79.40;;;;;;5042276;28;20033;-64
2023/02/11 12:05:33;;;;;;;12.10;6.78;;;11.70;79.10;;;;;;5039141;28;20036;-64
2023/02/11 12:08:16;;;;;;;9.73;4.50;;;11.70;78.70;;;;;;5037331;28;20095;-62
2023/02/11 12:10:51;;;;;;;11.52;6.18;;;11.70;78.70;;;;;;5046077;28;20083;-64
2023/02/11 12:13:36;;;;;;;12.93;5.90;;;11.80;78.20;;;;;;5042736;28;20048;-64
2023/02/11 12:16:20;;;;;;;8.32;3.80;;;11.90;77.70;;;;;;5039482;28;20044;-64
2023/02/11 12:19:30;;;;;;;8.93;5.38;;;11.80;77.60;;;;;;5046294;28;20618;-63
2023/02/11 12:22:08;;;;;;;9.20;5.88;;;11.80;77.60;;;;;;5048222;28;20043;-63
2023/02/11 12:25:02;;;;;;;7.45;4.10;;;11.80;77.60;;;;;;5054643;28;20044;-63
2023/02/11 12:27:41;;;;;;;10.52;4.68;;;11.80;77.60;;;;;;5045470;28;20095;-63
2023/02/11 12:30:36;;;;;;;6.43;3.75;;;11.80;77.70;;;;;;5037254;28;20111;-62
2023/02/11 12:33:04;;;;;;;9.15;4.55;;;12.00;77.40;;;;;;5034863;28;20045;-62
2023/02/11 12:35:45;;;;;;;10.18;4.95;;;12.00;77.00;;;;;;5048186;28;20032;-62
2023/02/11 12:38:31;;;;;;;6.57;4.45;;;12.10;76.80;;;;;;5048782;28;20040;-62
2023/02/11 12:41:09;;;;;;;5.47;3.65;;;12.30;76.70;;;;;;5051294;28;20067;-63
2023/02/11 12:43:43;;;;;;;6.10;3.70;;;13.00;75.60;;;;;;5047678;28;20047;-63
2023/02/11 12:46:15;;;;;;;4.78;3.45;;;13.40;74.00;;;;;;5081459;28;20549;-63
2023/02/11 12:49:00;;;;;;;;;;;13.40;73.00;;;;;;5071272;28;20037;-63
2023/02/11 12:51:34;;;;;;;5.68;2.88;;;13.20;72.50;;;;;;5043683;28;20003;-63
2023/02/11 12:54:09;;;;;;;5.78;2.97;;;13.00;73.50;;;;;;5050700;28;20025;-63
2023/02/11 12:56:38;;;;;;;10.05;3.95;;;13.00;73.70;;;;;;5042427;28;20032;-63
2023/02/11 12:59:11;;;;;;;6.30;3.90;;;12.90;73.80;;;;;;5035214;28;20025;-62
2023/02/11 13:01:43;;;;;;;4.57;3.00;;;12.80;73.90;;;;;;5043415;28;20043;-63
2023/02/11 13:04:15;;;;;;;5.43;2.92;;;12.70;74.00;;;;;;5046028;28;20047;-63
2023/02/11 13:07:12;;;;;;;9.23;4.32;;;12.60;74.20;;;;;;5043381;28;20089;-63
2023/02/11 13:09:44;;;;;;;15.70;5.72;;;12.60;74.10;;;;;;5045422;28;20049;-63
2023/02/11 13:15:01;;;;;;;8.23;3.83;;;12.40;74.30;;;;;;5046433;28;19915;-63